createdAt,value
2023-02-28T00:00:19.700Z,1.43
2023-02-28T00:03:21.112Z,1.40
2023-02-28T00:06:22.806Z,1.40
2023-02-28T00:09:24.183Z,1.47
2023-02-28T00:12:25.666Z,1.32
2023-02-28T00:15:27.388Z,1.30
2023-02-28T00:18:31.499Z,1.28
2023-02-28T00:21:33.045Z,1.30
2023-02-28T00:24:34.501Z,1.33
2023-02-28T00:27:37.515Z,1.32
2023-02-28T00:30:39.827Z,1.25
2023-02-28T00:33:41.248Z,1.28
2023-02-28T00:36:46.239Z,1.27
2023-02-28T00:39:47.630Z,1.27
2023-02-28T00:42:51.055Z,1.21
2023-02-28T00:45:52.566Z,1.10
2023-02-28T00:48:53.995Z,1.09
2023-02-28T00:51:56.493Z,1.08
2023-02-28T00:54:58.171Z,1.08
2023-02-28T00:57:59.679Z,1.10
2023-02-28T01:01:01.326Z,1.12
2023-02-28T01:04:02.752Z,1.10
2023-02-28T01:07:04.206Z,1.11
2023-02-28T01:10:06.110Z,1.04
2023-02-28T01:13:07.995Z,1.02
2023-02-28T01:16:14.003Z,1.11
2023-02-28T01:19:15.421Z,1.09
2023-02-28T01:22:16.852Z,1.06
2023-02-28T01:25:18.267Z,1.02
2023-02-28T01:28:19.792Z,1.04
2023-02-28T01:31:22.214Z,0.98
2023-02-28T01:34:24.122Z,0.98
2023-02-28T01:37:26.418Z,0.96
2023-02-28T01:40:27.831Z,0.97
2023-02-28T01:43:53.827Z,0.88
2023-02-28T01:46:55.220Z,0.86
2023-02-28T01:49:57.119Z,0.81
2023-02-28T01:53:02.698Z,0.81
2023-02-28T01:56:09.354Z,0.78
2023-02-28T01:59:15.060Z,0.77
2023-02-28T02:02:18.535Z,0.77
2023-02-28T02:05:26.472Z,0.74
2023-02-28T02:08:30.038Z,0.73
2023-02-28T02:11:31.932Z,0.71
2023-02-28T02:14:49.147Z,0.74
2023-02-28T02:17:57.040Z,0.68
2023-02-28T02:21:37.004Z,0.69
2023-02-28T02:24:41.607Z,0.63
2023-02-28T02:28:30.908Z,0.60
2023-02-28T02:31:57.047Z,0.62
2023-02-28T02:35:43.836Z,0.57
2023-02-28T02:39:03.283Z,0.57
2023-02-28T02:42:15.003Z,0.57
2023-02-28T02:45:24.705Z,0.57
2023-02-28T02:48:33.165Z,0.51
2023-02-28T02:51:35.710Z,0.45
2023-02-28T02:54:41.082Z,0.49
2023-02-28T02:57:54.754Z,0.57
2023-02-28T03:01:01.632Z,0.54
2023-02-28T03:04:18.972Z,0.46
2023-02-28T03:07:22.354Z,0.45
2023-02-28T03:10:44.322Z,0.45
2023-02-28T03:14:10.940Z,0.34
2023-02-28T03:17:26.018Z,0.36
2023-02-28T03:20:53.766Z,0.35
2023-02-28T03:24:05.528Z,0.35
2023-02-28T03:27:17.604Z,0.38
2023-02-28T03:30:28.883Z,0.35
2023-02-28T03:33:39.007Z,0.27
2023-02-28T03:36:46.904Z,0.25
2023-02-28T03:39:54.598Z,0.28
2023-02-28T03:43:03.293Z,0.27
2023-02-28T03:46:10.245Z,0.33
2023-02-28T03:49:25.665Z,0.34
2023-02-28T03:52:33.413Z,0.34
2023-02-28T03:55:43.516Z,0.21
2023-02-28T03:59:03.561Z,0.14
2023-02-28T04:02:05.110Z,0.12
2023-02-28T04:05:08.109Z,0.11
2023-02-28T04:08:09.562Z,0.13
2023-02-28T04:11:29.771Z,0.20
2023-02-28T04:14:31.414Z,0.13
2023-02-28T04:17:32.869Z,0.13
2023-02-28T04:20:34.260Z,0.13
2023-02-28T04:23:35.647Z,0.07
2023-02-28T04:26:37.638Z,0.13
2023-02-28T04:29:39.141Z,0.18
2023-02-28T04:32:40.623Z,0.12
2023-02-28T04:35:42.223Z,0.14
2023-02-28T04:38:43.601Z,0.14
2023-02-28T04:41:46.359Z,0.19
2023-02-28T04:44:48.168Z,0.20
2023-02-28T04:47:49.559Z,0.30
2023-02-28T04:50:51.781Z,0.26
2023-02-28T04:53:53.398Z,0.22
2023-02-28T04:56:55.686Z,0.28
2023-02-28T04:59:57.060Z,0.24
2023-02-28T05:02:58.422Z,0.36
2023-02-28T05:05:59.785Z,0.31
2023-02-28T05:09:01.274Z,0.28
2023-02-28T05:12:02.784Z,0.39
2023-02-28T05:15:05.840Z,0.44
2023-02-28T05:18:09.159Z,0.46
2023-02-28T05:21:25.550Z,0.54
2023-02-28T05:24:27.088Z,0.57
2023-02-28T05:27:29.214Z,0.51
2023-02-28T05:30:30.944Z,0.54
2023-02-28T05:33:32.353Z,0.65
2023-02-28T05:36:34.457Z,0.64
2023-02-28T05:39:35.888Z,0.60
2023-02-28T05:42:38.402Z,0.61
2023-02-28T05:45:39.864Z,0.63
2023-02-28T05:48:42.946Z,0.59
2023-02-28T05:51:44.542Z,0.70
2023-02-28T05:54:47.740Z,0.65
2023-02-28T05:57:49.110Z,0.71
2023-02-28T06:00:50.485Z,0.71
2023-02-28T06:03:51.931Z,0.78
2023-02-28T06:06:53.431Z,0.72
2023-02-28T06:09:54.799Z,0.64
2023-02-28T06:12:56.211Z,0.69
2023-02-28T06:15:57.592Z,0.68
2023-02-28T06:19:00.621Z,0.62
2023-02-28T06:22:02.080Z,0.60
2023-02-28T06:25:07.364Z,0.68
2023-02-28T06:28:08.783Z,0.67
2023-02-28T06:31:17.798Z,0.68
2023-02-28T06:34:19.266Z,0.65
2023-02-28T06:37:21.008Z,0.60
2023-02-28T06:40:22.432Z,0.57
2023-02-28T06:43:25.605Z,0.71
2023-02-28T06:46:27.069Z,0.81
2023-02-28T06:49:28.613Z,0.81
2023-02-28T06:52:30.366Z,0.68
2023-02-28T06:55:32.078Z,0.63
2023-02-28T06:58:34.391Z,0.63
2023-02-28T07:01:35.840Z,0.80
2023-02-28T07:04:37.381Z,0.95
2023-02-28T07:07:41.513Z,0.92
2023-02-28T07:10:42.932Z,1.04
2023-02-28T07:13:44.578Z,1.06
2023-02-28T07:16:46.756Z,1.27
2023-02-28T07:19:48.186Z,1.23
2023-02-28T07:22:56.065Z,1.36
2023-02-28T07:25:57.475Z,1.52
2023-02-28T07:28:58.916Z,1.54
2023-02-28T07:32:00.311Z,1.52
2023-02-28T07:35:01.696Z,1.64
2023-02-28T07:38:03.939Z,1.73
2023-02-28T07:41:05.443Z,1.79
2023-02-28T07:44:06.977Z,1.90
2023-02-28T07:47:10.132Z,1.96
2023-02-28T07:50:14.255Z,2.00
2023-02-28T07:53:15.632Z,2.03
2023-02-28T07:56:17.009Z,2.15
2023-02-28T07:59:18.497Z,1.98
2023-02-28T08:02:20.077Z,1.99
2023-02-28T08:05:22.249Z,2.10
2023-02-28T08:08:24.478Z,2.26
2023-02-28T08:11:25.934Z,2.20
2023-02-28T08:14:27.627Z,2.29
2023-02-28T08:17:29.852Z,2.38
2023-02-28T08:20:31.699Z,2.68
2023-02-28T08:23:34.503Z,2.85
2023-02-28T08:26:35.920Z,2.69
2023-02-28T08:29:40.413Z,2.71
2023-02-28T08:32:42.013Z,2.86
2023-02-28T08:35:43.458Z,2.89
2023-02-28T08:38:44.922Z,2.79
2023-02-28T08:41:49.371Z,2.79
2023-02-28T08:44:52.623Z,2.85
2023-02-28T08:47:55.533Z,2.87
2023-02-28T08:51:19.485Z,2.96
2023-02-28T08:54:20.899Z,3.23
2023-02-28T08:57:22.334Z,3.29
2023-02-28T09:00:23.999Z,3.27
2023-02-28T09:03:25.621Z,3.39
2023-02-28T09:06:28.081Z,3.44
2023-02-28T09:09:29.695Z,3.48
2023-02-28T09:12:35.262Z,3.42
2023-02-28T09:15:38.685Z,3.55
2023-02-28T09:18:40.582Z,3.56
2023-02-28T09:21:42.168Z,3.65
2023-02-28T09:24:45.669Z,3.72
2023-02-28T09:27:47.151Z,3.79
2023-02-28T09:30:52.392Z,3.86
2023-02-28T09:33:55.852Z,3.84
2023-02-28T09:36:57.459Z,3.92
2023-02-28T09:39:58.904Z,4.05
2023-02-28T09:43:01.170Z,4.23
2023-02-28T09:46:24.419Z,4.34
2023-02-28T09:49:34.246Z,4.33
2023-02-28T09:52:37.381Z,4.09
2023-02-28T09:55:47.271Z,3.87
2023-02-28T09:58:52.003Z,3.87
2023-02-28T10:02:22.052Z,4.32
2023-02-28T10:05:54.344Z,4.53
2023-02-28T10:09:06.866Z,4.86
2023-02-28T10:12:12.453Z,4.72
2023-02-28T10:15:18.259Z,4.60
2023-02-28T10:18:25.720Z,4.43
2023-02-28T10:21:33.314Z,4.59
2023-02-28T10:24:46.901Z,4.82
2023-02-28T10:27:48.782Z,5.07
2023-02-28T10:30:52.754Z,5.37
2023-02-28T10:33:54.288Z,4.95
2023-02-28T10:36:56.721Z,5.17
2023-02-28T10:39:58.176Z,5.24
2023-02-28T10:43:01.834Z,5.27
2023-02-28T10:46:09.036Z,5.21
2023-02-28T10:49:21.219Z,5.29
2023-02-28T10:52:41.736Z,5.31
2023-02-28T10:55:43.473Z,5.51
2023-02-28T10:58:55.683Z,5.39
2023-02-28T11:01:57.349Z,5.65
2023-02-28T11:04:58.880Z,5.59
2023-02-28T11:08:07.596Z,5.66
2023-02-28T11:11:09.026Z,5.61
2023-02-28T11:14:27.066Z,5.81
2023-02-28T11:17:31.586Z,6.02
2023-02-28T11:20:35.036Z,6.13
2023-02-28T11:23:41.029Z,6.20
2023-02-28T11:26:49.469Z,5.90
2023-02-28T11:29:50.876Z,5.92
2023-02-28T11:32:52.381Z,6.06
2023-02-28T11:35:59.627Z,6.35
2023-02-28T11:39:09.783Z,6.37
2023-02-28T11:42:41.299Z,6.43
2023-02-28T11:46:11.720Z,6.22
2023-02-28T11:49:31.900Z,6.23
2023-02-28T11:53:17.755Z,5.94
2023-02-28T11:56:37.044Z,6.01
2023-02-28T11:59:53.793Z,5.94
2023-02-28T12:03:22.581Z,6.20
2023-02-28T12:06:50.182Z,6.80
2023-02-28T12:10:12.488Z,6.84
2023-02-28T12:13:22.610Z,6.91
2023-02-28T12:16:46.748Z,7.00
2023-02-28T12:20:03.964Z,7.32
2023-02-28T12:23:27.068Z,7.92
2023-02-28T12:26:40.831Z,7.94
2023-02-28T12:29:53.172Z,7.52
2023-02-28T12:33:10.163Z,7.79
2023-02-28T12:36:18.339Z,7.24
2023-02-28T12:39:27.088Z,7.70
2023-02-28T12:42:32.564Z,8.19
2023-02-28T12:45:52.054Z,8.20
2023-02-28T12:48:57.933Z,8.19
2023-02-28T12:52:02.532Z,8.20
2023-02-28T12:55:12.861Z,8.22
2023-02-28T12:58:23.496Z,8.20
2023-02-28T13:01:50.083Z,8.30
2023-02-28T13:05:25.603Z,8.31
2023-02-28T13:08:39.067Z,8.51
2023-02-28T13:11:55.390Z,8.65
2023-02-28T13:15:22.091Z,8.73
2023-02-28T13:18:46.164Z,8.73
2023-02-28T13:21:49.960Z,8.70
2023-02-28T13:24:57.418Z,8.63
2023-02-28T13:28:01.760Z,8.78
2023-02-28T13:31:05.666Z,8.86
2023-02-28T13:34:15.097Z,8.45
2023-02-28T13:37:22.686Z,8.31
2023-02-28T13:40:38.726Z,8.50
2023-02-28T13:44:09.853Z,8.95
2023-02-28T13:47:20.661Z,9.14
2023-02-28T13:50:32.924Z,8.90
2023-02-28T13:53:50.583Z,8.77
2023-02-28T13:57:08.875Z,8.91
2023-02-28T14:00:42.355Z,8.70
2023-02-28T14:04:07.429Z,8.09
2023-02-28T14:07:16.684Z,8.01
2023-02-28T14:10:31.741Z,8.05
2023-02-28T14:13:59.863Z,8.03
2023-02-28T14:17:03.139Z,8.52
2023-02-28T14:20:05.032Z,8.81
2023-02-28T14:23:21.757Z,9.13
2023-02-28T14:27:00.911Z,9.29
2023-02-28T14:30:33.101Z,9.06
2023-02-28T14:33:49.841Z,9.23
2023-02-28T14:36:54.122Z,9.12
2023-02-28T14:39:57.190Z,9.29
2023-02-28T14:43:06.933Z,9.24
2023-02-28T14:46:08.529Z,8.95
2023-02-28T14:49:24.114Z,8.73
2023-02-28T14:52:29.677Z,8.26
2023-02-28T14:55:34.801Z,8.27
2023-02-28T14:58:36.479Z,8.50
2023-02-28T15:01:37.916Z,8.61
2023-02-28T15:04:39.327Z,8.05
2023-02-28T15:07:40.802Z,7.40
2023-02-28T15:10:51.536Z,7.44
2023-02-28T15:13:56.296Z,7.12
2023-02-28T15:17:03.288Z,7.21
2023-02-28T15:20:05.301Z,7.22
2023-02-28T15:23:06.915Z,7.06
2023-02-28T15:26:12.069Z,6.96
2023-02-28T15:29:21.876Z,6.89
2023-02-28T15:32:32.680Z,6.91
2023-02-28T15:35:34.574Z,6.84
2023-02-28T15:38:37.175Z,6.91
2023-02-28T15:41:39.061Z,6.96
2023-02-28T15:44:40.698Z,6.99
2023-02-28T15:47:47.173Z,6.62
2023-02-28T15:50:53.551Z,6.49
2023-02-28T15:54:22.742Z,6.23
2023-02-28T15:57:30.034Z,6.25
2023-02-28T16:00:33.758Z,6.06
2023-02-28T16:03:41.788Z,6.13
2023-02-28T16:07:00.781Z,6.21
2023-02-28T16:10:03.237Z,6.16
2023-02-28T16:13:04.836Z,6.12
2023-02-28T16:16:06.645Z,6.04
2023-02-28T16:19:09.250Z,6.05
2023-02-28T16:22:10.744Z,6.06
2023-02-28T16:25:17.510Z,5.99
2023-02-28T16:28:24.868Z,5.80
2023-02-28T16:31:26.273Z,5.72
2023-02-28T16:34:27.955Z,5.67
2023-02-28T16:37:29.491Z,5.79
2023-02-28T16:40:35.962Z,5.85
2023-02-28T16:43:38.934Z,5.75
2023-02-28T16:46:40.749Z,5.65
2023-02-28T16:49:43.927Z,5.62
2023-02-28T16:52:45.468Z,5.58
2023-02-28T16:55:48.163Z,5.41
2023-02-28T16:58:50.663Z,5.31
2023-02-28T17:01:52.923Z,5.39
2023-02-28T17:04:54.423Z,5.36
2023-02-28T17:07:55.826Z,5.25
2023-02-28T17:10:57.340Z,5.28
2023-02-28T17:13:58.779Z,5.20
2023-02-28T17:17:00.350Z,5.11
2023-02-28T17:20:01.836Z,5.04
2023-02-28T17:23:03.416Z,5.04
2023-02-28T17:26:07.411Z,4.88
2023-02-28T17:29:20.833Z,4.90
2023-02-28T17:32:22.237Z,4.92
2023-02-28T17:35:24.772Z,4.96
2023-02-28T17:38:26.396Z,4.93
2023-02-28T17:41:27.815Z,4.87
2023-02-28T17:44:29.235Z,4.92
2023-02-28T17:47:30.726Z,4.91
2023-02-28T17:50:32.830Z,4.86
2023-02-28T17:53:34.236Z,4.90
2023-02-28T17:56:35.795Z,4.82
2023-02-28T17:59:37.166Z,4.72
2023-02-28T18:02:38.626Z,4.73
2023-02-28T18:05:40.562Z,4.76
2023-02-28T18:08:42.238Z,4.72
2023-02-28T18:11:46.030Z,4.63
2023-02-28T18:14:48.684Z,4.67
2023-02-28T18:17:50.626Z,4.68
2023-02-28T18:20:53.202Z,4.65
2023-02-28T18:23:54.783Z,4.60
2023-02-28T18:26:56.161Z,4.59
2023-02-28T18:29:57.548Z,4.53
2023-02-28T18:33:00.364Z,4.36
2023-02-28T18:36:02.025Z,4.34
2023-02-28T18:39:03.561Z,4.35
2023-02-28T18:42:05.114Z,4.44
2023-02-28T18:45:07.383Z,4.43
2023-02-28T18:48:08.771Z,4.31
2023-02-28T18:51:13.146Z,4.19
2023-02-28T18:54:15.655Z,4.16
2023-02-28T18:57:17.093Z,4.15
2023-02-28T19:00:22.227Z,4.17
2023-02-28T19:03:23.763Z,4.08
2023-02-28T19:06:25.153Z,4.07
2023-02-28T19:09:26.677Z,4.10
2023-02-28T19:12:28.057Z,4.14
2023-02-28T19:15:29.460Z,4.06
2023-02-28T19:18:32.127Z,4.04
2023-02-28T19:21:36.344Z,4.06
2023-02-28T19:24:37.746Z,4.09
2023-02-28T19:27:39.469Z,3.98
2023-02-28T19:30:45.996Z,3.96
2023-02-28T19:33:47.428Z,3.85
2023-02-28T19:36:49.581Z,3.90
2023-02-28T19:39:51.634Z,3.76
2023-02-28T19:42:53.008Z,3.72
2023-02-28T19:45:54.498Z,3.73
2023-02-28T19:48:55.894Z,3.74
2023-02-28T19:51:58.081Z,3.79
2023-02-28T19:54:59.726Z,3.74
2023-02-28T19:58:01.157Z,3.69
2023-02-28T20:01:17.459Z,3.62
2023-02-28T20:04:18.920Z,3.58
2023-02-28T20:07:20.521Z,3.52
2023-02-28T20:10:21.946Z,3.47
2023-02-28T20:13:27.978Z,3.43
2023-02-28T20:16:31.141Z,3.43
2023-02-28T20:19:32.963Z,3.43
2023-02-28T20:22:38.242Z,3.41
2023-02-28T20:25:40.737Z,3.43
2023-02-28T20:28:43.397Z,3.42
2023-02-28T20:31:44.875Z,3.45
2023-02-28T20:34:46.280Z,3.41
2023-02-28T20:37:47.672Z,3.41
2023-02-28T20:40:49.068Z,3.43
2023-02-28T20:44:02.259Z,3.36
2023-02-28T20:47:03.835Z,3.28
2023-02-28T20:50:05.926Z,3.24
2023-02-28T20:53:07.401Z,3.23
2023-02-28T20:56:13.649Z,3.23
2023-02-28T20:59:15.112Z,3.23
2023-02-28T21:02:17.159Z,3.15
2023-02-28T21:05:18.579Z,3.14
2023-02-28T21:08:20.016Z,3.12
2023-02-28T21:11:25.407Z,2.98
2023-02-28T21:14:27.298Z,2.99
2023-02-28T21:17:29.235Z,3.00
2023-02-28T21:20:30.627Z,3.04
2023-02-28T21:23:32.350Z,2.93
2023-02-28T21:26:33.888Z,3.01
2023-02-28T21:29:36.248Z,3.00
2023-02-28T21:32:37.679Z,2.96
2023-02-28T21:35:39.119Z,2.90
2023-02-28T21:38:42.094Z,2.84
2023-02-28T21:41:43.708Z,2.81
2023-02-28T21:44:45.228Z,2.77
2023-02-28T21:47:46.682Z,2.68
2023-02-28T21:51:02.381Z,2.53
2023-02-28T21:54:04.048Z,2.60
2023-02-28T21:57:05.635Z,2.65
2023-02-28T22:00:08.814Z,2.65
2023-02-28T22:03:13.921Z,2.62
2023-02-28T22:06:21.162Z,2.65
2023-02-28T22:09:22.713Z,2.63
2023-02-28T22:12:25.610Z,2.59
2023-02-28T22:15:27.585Z,2.58
2023-02-28T22:18:28.979Z,2.47
2023-02-28T22:21:30.405Z,2.51
2023-02-28T22:24:31.780Z,2.50
2023-02-28T22:27:33.854Z,2.44
2023-02-28T22:30:35.236Z,2.47
2023-02-28T22:33:36.599Z,2.41
2023-02-28T22:36:41.388Z,2.38
2023-02-28T22:39:42.874Z,2.40
2023-02-28T22:42:44.265Z,2.37
2023-02-28T22:45:45.684Z,2.43
2023-02-28T22:48:48.666Z,2.37
2023-02-28T22:51:50.080Z,2.41
2023-02-28T22:54:52.051Z,2.48
2023-02-28T22:57:53.474Z,2.36
2023-02-28T23:00:55.366Z,2.33
2023-02-28T23:03:57.247Z,2.46
2023-02-28T23:06:58.695Z,2.54
2023-02-28T23:10:00.144Z,2.40
2023-02-28T23:13:01.524Z,2.35
2023-02-28T23:16:07.235Z,2.38
2023-02-28T23:19:11.632Z,2.42
2023-02-28T23:22:13.011Z,2.26
2023-02-28T23:25:14.509Z,2.25
2023-02-28T23:28:16.266Z,2.23
2023-02-28T23:31:17.760Z,2.15
2023-02-28T23:34:26.103Z,2.18
2023-02-28T23:37:27.489Z,2.15
2023-02-28T23:40:28.930Z,2.16
2023-02-28T23:43:30.315Z,2.12
2023-02-28T23:46:32.104Z,2.10
2023-02-28T23:49:33.641Z,2.12
2023-02-28T23:52:35.098Z,2.14
2023-02-28T23:55:36.611Z,2.18
2023-02-28T23:58:37.995Z,2.16
